Аэропорт: Жезказган. Жезказган

ICAO: UAKD

METAR:
2022-06-26 10:30:00
UAKD 261030Z 24008MPS CAVOK 37/04 Q1001 NOSIG RMK QFE718/0957
METAR:
2022-06-26 08:01:00
TAF UAKD 260801Z 2609/2618 26009MPS 9999 SCT040 TEMPO 2609/2612 27012G17MPS 5000 BLDU FU PROB40 TEMPO 2612/2618 VRB16MPS 5000 -TSRA BLDU SQ BKN040CB